Flight Number: EUR1203 Duration: 1:20
Departure: Chisinau Int'l Airport (LUKK) at 18:25 Distance: 385 Nm
Arrival: Beograd/Belgrade (LYBE) at 19:45 Equipment: A321

Weather Information
Chisinau International Airport, Moldova (LUKK) 46-55-40N 028-55-51E Aug 19, 2018 - 05:00 AM EDT / 2018.08.19 0900 UTC
Wind: from the WNW (290 degrees) at 3 MPH (3 KT):0
Visibility: greater than 7 mile(s):0 Temperature: 84 F (29 C) Dew Point: 60 F (16 C) Relative Humidity: 45% Pressure (altimeter): 30.06 in. Hg (1018 hPa)
ob: LUKK 190900Z 29003KT CAVOK 29/16 Q1018 R26/CLRD// NOSIG cycle: 9
Sunrise: 03:11 Sunset: 17:04 (UTC)

Beograd / Surcin, Serbia and Montenegro (LYBE) 44-49N 020-17E 99M Aug 19, 2018 - 05:00 AM EDT / 2018.08.19 0900 UTC
Wind: from the NNE (030 degrees) at 3 MPH (3 KT) (direction variable):0
Visibility: greater than 7 mile(s):0 Temperature: 84 F (29 C) Dew Point: 62 F (17 C) Relative Humidity: 48% Pressure (altimeter): 30.06 in. Hg (1018 hPa)
ob: LYBE 190900Z 03003KT 340V100 CAVOK 29/17 Q1018 NOSIG cycle: 9
Sunrise: 03:49 Sunset: 17:34 (UTC)

TAF:2018/08/19 06:22 TAF LYBE 190500Z 1906/2006 03005KT CAVOK TX33/1913Z TN17/2003Z TEMPO 2003/2005 4000 BR

Previous Pireps for this route
Date Aircraft Flight time Fuel used Landing rate On time
2013-04-19A32101.329410-366No
2014-11-23B757-20001.1912862-206Charter
2015-04-19A32101.318557-212Yes
2015-08-11A3211.20163800Yes
(pireps marked green are flown by you)

Route map